Terminal Aerodrome Forecast
Issued by NWS

Home | Current Version | Previous Version | Text Only | Print | Product List | Glossary On
Versions: 1 2 3 4 5 6 7 8 9 10 11 12 13 14 15 16 17 18 19 20
000
FTUS43 KIND 290520
TAFLAF
TAF
KLAF 290520Z 2906/3006 20012KT P6SM SCT050 BKN200 WS020/22045KT
     FM291200 22011KT P6SM SCT045 BKN200
     FM291500 23013G21KT P6SM VCTS BKN045CB
     FM291800 23014KT P6SM BKN045
     FM300000 21009KT P6SM BKN035
      AMD LTD TO CLD VIS AND WIND TIL 291300=

USA.gov is the U.S. government's official web portal to all federal, state and local government web resources and services.